Time;durP1;ratioP1;P1;durP2;ratioP2;P2;SDS_P1;SDS_P2;PMS_P1;PMS_P2;Temp;Humidity;BMP_temperature;BMP_pressure;BME280_temperature;BME280_humidity;BME280_pressure;Samples;Min_cycle;Max_cycle;Signal;HPM_P1;HPM_P2
2023/12/31 00:01:44;;;;;;;18.25;4.97;;;3.60;99.90;;;2.16;100.00;100726.34;4896713;28;20037;-82
2023/12/31 00:04:17;;;;;;;25.85;8.65;;;3.60;99.90;;;2.18;100.00;100729.78;4872654;28;20043;-82
2023/12/31 00:06:44;;;;;;;26.83;7.18;;;3.60;99.90;;;2.20;100.00;100728.03;4907440;28;20158;-82
2023/12/31 00:09:09;;;;;;;42.53;17.20;;;3.60;99.90;;;2.23;100.00;100724.53;4875623;28;20079;-82
2023/12/31 00:11:35;;;;;;;20.00;6.60;;;3.70;99.90;;;2.25;100.00;100727.97;4895092;28;20472;-82
2023/12/31 00:14:12;;;;;;;22.08;5.28;;;3.70;99.90;;;2.30;100.00;100725.31;4893957;28;20510;-82
2023/12/31 00:16:38;;;;;;;23.33;4.60;;;3.80;99.90;;;2.32;100.00;100723.56;4873176;28;20051;-81
2023/12/31 00:19:04;;;;;;;20.05;5.00;;;3.80;99.90;;;2.37;100.00;100724.34;4854861;28;20044;-81
2023/12/31 00:21:30;;;;;;;47.10;13.10;;;3.80;99.90;;;2.40;100.00;100722.56;4884304;28;20602;-82
2023/12/31 00:24:05;;;;;;;81.13;38.13;;;;;;;2.44;100.00;100720.78;4851326;28;20062;-81
2023/12/31 00:26:33;;;;;;;118.27;57.47;;;3.90;99.90;;;2.47;100.00;100726.81;4859845;28;20040;-82
2023/12/31 00:28:59;;;;;;;33.10;13.48;;;3.90;99.90;;;2.49;100.00;100726.78;4860019;28;20742;-82
2023/12/31 00:31:48;;;;;;;38.30;12.10;;;4.00;99.90;;;2.54;100.00;100718.94;4891032;28;20042;-81
2023/12/31 00:34:14;;;;;;;35.45;6.13;;;4.00;99.90;;;2.58;100.00;100718.00;4891226;28;20066;-81
2023/12/31 00:37:05;;;;;;;14.48;4.60;;;4.00;99.90;;;2.61;100.00;100721.44;4900174;28;20534;-81
2023/12/31 00:39:33;;;;;;;45.35;15.32;;;4.10;99.90;;;2.66;100.00;100722.22;4897351;28;20140;-81
2023/12/31 00:41:59;;;;;;;114.00;36.75;;;4.10;99.90;;;2.69;100.00;100726.50;4900349;28;20059;-81
2023/12/31 00:44:25;;;;;;;116.00;40.42;;;4.10;99.90;;;2.71;100.00;100723.91;4854461;28;20568;-81
2023/12/31 00:47:00;;;;;;;30.77;7.53;;;4.10;99.90;;;2.76;100.00;100729.88;4857617;28;20038;-82
2023/12/31 00:49:26;;;;;;;27.38;5.93;;;4.10;99.90;;;2.76;100.00;100724.69;4860513;28;20108;-81
2023/12/31 00:51:52;;;;;;;32.15;5.78;;;4.20;99.90;;;2.78;100.00;100730.72;4831515;28;20486;-82
2023/12/31 00:54:18;;;;;;;81.07;27.75;;;4.20;99.90;;;2.81;100.00;100720.28;4845057;28;20048;-82
2023/12/31 00:56:53;;;;;;;111.82;43.63;;;;;;;2.85;100.00;100714.13;4896428;28;20047;-82
2023/12/31 00:59:21;;;;;;;112.45;44.75;;;4.30;99.90;;;2.85;100.00;100711.53;4849189;28;20054;-81
2023/12/31 01:01:47;;;;;;;27.48;7.70;;;4.30;99.90;;;2.85;100.00;100711.53;4835918;28;20035;-82
2023/12/31 01:04:22;;;;;;;28.35;9.48;;;4.30;99.90;;;2.86;100.00;100716.72;4846174;28;20035;-81
2023/12/31 01:06:51;;;;;;;34.13;13.30;;;4.30;99.90;;;2.85;100.00;100704.63;4885940;28;20042;-81
2023/12/31 01:09:24;;;;;;;18.02;5.32;;;4.30;99.90;;;2.86;100.00;100710.66;4897025;28;20031;-81
2023/12/31 01:12:08;;;;;;;28.63;8.60;;;4.30;99.90;;;2.86;100.00;100714.13;4874984;28;20685;-81
2023/12/31 01:14:49;;;;;;;27.75;8.43;;;4.30;99.90;;;2.88;100.00;100712.34;4858913;28;20693;-81
2023/12/31 01:17:15;;;;;;;27.77;9.13;;;4.30;99.90;;;2.90;100.00;100709.75;4886476;28;21052;-82
2023/12/31 01:19:46;;;;;;;24.67;5.38;;;4.30;99.90;;;2.91;100.00;100715.78;4865838;28;20039;-82
2023/12/31 01:22:14;;;;;;;28.38;8.27;;;4.40;99.90;;;2.91;100.00;100710.59;4857883;28;20115;-82
2023/12/31 01:24:40;;;;;;;19.15;6.18;;;4.40;99.90;;;2.96;100.00;100709.66;4868226;28;20040;-82
2023/12/31 01:27:06;;;;;;;27.05;8.30;;;4.40;99.90;;;2.97;100.00;100716.56;4875353;28;20501;-82
2023/12/31 01:29:54;;;;;;;20.08;5.40;;;4.40;99.90;;;3.02;100.00;100712.16;4886627;28;20095;-82
2023/12/31 01:32:23;;;;;;;43.65;18.33;;;4.50;99.90;;;3.03;100.00;100703.47;4926702;29;20035;-83
2023/12/31 01:35:03;;;;;;;33.08;8.13;;;4.50;99.90;;;3.09;100.00;100707.72;4891873;28;20031;-82
2023/12/31 01:37:40;;;;;;;24.73;4.68;;;4.50;99.90;;;3.07;100.00;100699.06;4900663;23;20094;-81
2023/12/31 01:40:07;;;;;;;25.15;5.90;;;4.50;99.90;;;3.10;100.00;100703.38;4834422;28;20075;-82
2023/12/31 01:42:33;;;;;;;20.27;6.85;;;;;;;3.15;100.00;100701.53;4869612;28;20050;-82
2023/12/31 01:45:05;;;;;;;25.98;7.53;;;4.60;99.90;;;3.19;100.00;100701.47;4856395;28;20052;-82
2023/12/31 01:47:36;;;;;;;32.88;8.90;;;4.60;99.90;;;3.21;100.00;100701.44;4849911;28;20696;-83
2023/12/31 01:50:14;;;;;;;25.05;6.25;;;4.70;99.90;;;3.25;100.00;100701.34;4858583;28;20047;-82
2023/12/31 01:52:43;;;;;;;20.15;5.18;;;4.70;99.90;;;3.27;100.00;100696.13;4831559;29;20141;-83
2023/12/31 01:55:21;;;;;;;18.20;5.85;;;4.70;99.90;;;3.29;100.00;100691.78;4800190;28;20027;-82
2023/12/31 01:57:47;;;;;;;25.27;7.25;;;4.70;99.90;;;3.32;100.00;100691.69;4826150;29;20674;-81
2023/12/31 02:00:24;;;;;;;19.35;5.57;;;4.80;99.90;;;3.34;100.00;100687.31;4829892;29;20103;-83
2023/12/31 02:03:29;;;;;;;;;;;;;;;;;;;;;
2023/12/31 02:05:55;;;;;;;22.23;4.80;;;4.80;99.90;;;3.37;100.00;100679.50;4813326;28;20286;-82
2023/12/31 02:08:23;;;;;;;26.50;5.85;;;4.80;99.90;;;3.41;100.00;100682.88;4847285;28;20536;-82
2023/12/31 02:11:16;;;;;;;22.05;5.68;;;4.90;99.90;;;3.43;100.00;100678.50;4847733;29;20043;-83
2023/12/31 02:13:45;;;;;;;24.23;6.20;;;4.90;99.90;;;3.44;100.00;100670.66;4855697;28;20030;-85
2023/12/31 02:16:34;;;;;;;25.92;6.35;;;4.90;99.90;;;3.45;100.00;100664.56;4852123;23;20138;-84
2023/12/31 02:18:59;;;;;;;28.00;6.90;;;4.90;99.90;;;3.46;100.00;100660.25;4829917;28;20047;-82
2023/12/31 02:21:26;;;;;;;21.08;5.97;;;4.90;99.90;;;3.49;100.00;100663.63;4853174;29;20079;-83
2023/12/31 02:23:55;;;;;;;15.45;5.30;;;4.90;99.90;;;3.54;100.00;100673.09;4853599;29;20048;-83
2023/12/31 02:26:57;;;;;;;27.98;5.65;;;4.90;99.90;;;3.51;100.00;100665.34;4816675;29;20040;-82
2023/12/31 02:29:14;;;;;;;22.75;6.18;;;4.90;99.90;;;3.52;100.00;100656.66;4807572;29;20416;-84
2023/12/31 02:31:47;;;;;;;29.80;5.65;;;5.00;99.90;;;3.55;100.00;100652.25;4858036;29;20047;-83
2023/12/31 02:34:13;;;;;;;22.65;6.30;;;5.00;99.90;;;3.57;100.00;100660.03;4826053;29;20051;-83
2023/12/31 02:36:49;;;;;;;;;;;;;;;;;;;;;
2023/12/31 02:39:14;;;;;;;;;;;5.00;99.90;;;3.55;100.00;100652.25;4830264;28;20814;-83
2023/12/31 02:41:43;;;;;;;30.00;7.83;;;5.00;99.90;;;3.57;100.00;100647.03;4855121;29;19920;-83
2023/12/31 02:44:08;;;;;;;28.50;8.23;;;5.00;99.90;;;3.57;100.00;100650.47;4829958;28;20029;-83
2023/12/31 02:46:34;;;;;;;19.15;7.20;;;5.00;99.90;;;3.59;100.00;100653.91;4857636;29;20047;-83
2023/12/31 02:49:06;;;;;;;27.05;7.80;;;5.00;99.90;;;3.58;100.00;100640.91;4883746;28;20038;-83
2023/12/31 02:51:33;;;;;;;31.13;6.93;;;;;;;3.58;100.00;100640.91;4819278;28;20569;-83
2023/12/31 02:54:12;;;;;;;22.38;7.53;;;5.00;99.90;;;3.58;100.00;100633.09;4834901;29;20040;-83
2023/12/31 02:56:52;;;;;;;;;;;;;;;;;;;;;
2023/12/31 02:59:18;;;;;;;26.95;7.40;;;4.90;99.90;;;3.53;100.00;100627.13;4861992;28;20362;-82
2023/12/31 03:01:43;;;;;;;23.80;7.68;;;5.00;99.90;;;3.52;100.00;100626.28;4837224;28;20054;-82
2023/12/31 03:04:10;;;;;;;17.40;7.30;;;;;;;3.54;100.00;100632.28;4850150;28;20040;-83
2023/12/31 08:43:04;;;;;;;37.13;13.75;;;3.90;99.90;;;2.64;100.00;100448.41;5014985;27;20361;-81
2023/12/31 08:45:40;;;;;;;;;;;;;;;;;;;;;
2023/12/31 08:48:07;;;;;;;21.98;7.00;;;4.00;99.90;;;2.52;100.00;100427.81;4944643;28;20438;-81
2023/12/31 08:50:33;;;;;;;37.03;11.77;;;4.00;99.90;;;2.54;100.00;100425.22;4924978;28;20064;-81
2023/12/31 08:52:59;;;;;;;25.23;10.30;;;4.00;99.90;;;2.56;100.00;100419.09;4969912;28;20045;-81
2023/12/31 08:55:45;;;;;;;32.83;9.90;;;4.10;99.90;;;2.61;100.00;100417.28;4945474;28;20449;-81
2023/12/31 08:58:13;;;;;;;33.00;9.95;;;4.10;99.90;;;2.62;100.00;100416.38;4977444;28;20473;-81
2023/12/31 09:00:42;;;;;;;26.90;10.32;;;4.20;99.90;;;2.68;100.00;100423.22;5006174;28;20034;-81
2023/12/31 09:03:17;;;;;;;32.42;10.15;;;4.20;99.90;;;2.73;100.00;100418.78;4939258;28;20502;-81
2023/12/31 09:05:46;;;;;;;23.47;10.77;;;4.20;99.90;;;2.79;100.00;100417.81;4956177;28;20484;-81
2023/12/31 09:08:21;;;;;;;21.27;9.02;;;4.30;99.90;;;2.82;100.00;100420.34;4933541;28;20056;-82
2023/12/31 09:10:47;;;;;;;28.58;8.85;;;4.30;99.90;;;2.84;100.00;100413.38;4969783;28;20041;-81
2023/12/31 09:13:13;;;;;;;29.30;8.98;;;4.30;99.90;;;2.87;100.00;100413.28;4973548;28;20316;-81
2023/12/31 09:15:46;;;;;;;25.48;9.35;;;4.40;99.90;;;2.91;100.00;100416.69;4964795;28;20037;-81
2023/12/31 09:18:17;;;;;;;32.97;9.45;;;4.40;99.90;;;2.96;100.00;100414.84;4988271;28;20038;-82
2023/12/31 09:20:53;;;;;;;22.88;7.43;;;4.40;99.90;;;2.98;100.00;100410.47;4979860;28;20101;-82
2023/12/31 09:23:21;;;;;;;31.02;8.77;;;4.40;99.90;;;2.97;100.00;100400.97;4919852;28;20044;-81
2023/12/31 09:25:47;;;;;;;14.20;6.93;;;4.50;99.90;;;3.06;100.00;100403.38;4950776;28;20124;-81
2023/12/31 09:28:18;;;;;;;20.20;8.23;;;4.50;99.90;;;3.09;100.00;100400.72;4978948;28;20048;-81
2023/12/31 09:30:44;;;;;;;24.90;7.88;;;4.60;99.90;;;3.15;100.00;100400.56;4990914;28;20044;-82
2023/12/31 09:33:14;;;;;;;19.60;5.65;;;4.60;99.90;;;3.19;100.00;100399.63;4973142;28;20032;-82
2023/12/31 09:35:55;;;;;;;30.35;8.38;;;4.70;99.90;;;3.27;100.00;100396.88;4985793;28;20026;-82
2023/12/31 09:38:30;;;;;;;25.63;7.03;;;4.70;99.90;;;3.23;100.00;100390.03;4963861;28;20072;-82
2023/12/31 09:40:57;;;;;;;23.40;8.27;;;4.70;99.90;;;3.27;100.00;100395.13;4963534;28;20041;-81
2023/12/31 09:43:36;;;;;;;34.40;12.10;;;4.70;99.90;;;3.33;100.00;100395.91;4929462;28;20046;-81
2023/12/31 09:46:14;;;;;;;20.77;8.15;;;4.80;99.90;;;3.28;100.00;100389.03;4944665;28;20050;-82
2023/12/31 09:49:06;;;;;;;13.27;5.70;;;4.80;99.90;;;3.33;100.00;100396.75;4916542;28;20080;-82
2023/12/31 09:51:51;;;;;;;25.08;7.82;;;4.80;99.90;;;3.35;100.00;100389.75;4962215;28;20060;-82
2023/12/31 09:57:12;;;;;;;20.50;6.55;;;4.90;99.90;;;3.45;100.00;100379.97;4921601;28;20035;-81
2023/12/31 09:59:46;;;;;;;17.77;7.82;;;5.00;99.90;;;3.54;100.00;100376.31;4876479;28;20049;-81
2023/12/31 10:02:29;;;;;;;18.30;7.63;;;5.00;99.90;;;3.63;100.00;100363.09;4896988;28;20069;-81
2023/12/31 10:05:09;;;;;;;24.60;8.48;;;5.10;99.90;;;3.74;100.00;100357.59;4895708;28;20216;-80
2023/12/31 10:07:35;;;;;;;14.45;6.35;;;5.10;99.90;;;3.74;100.00;100355.00;4940964;23;20050;-81
2023/12/31 10:10:15;;;;;;;23.98;9.18;;;5.20;99.90;;;3.78;100.00;100349.69;4911353;28;20045;-82
2023/12/31 10:12:43;;;;;;;20.52;7.75;;;5.20;99.90;;;3.79;100.00;100340.97;4894989;28;20065;-82
2023/12/31 10:15:18;;;;;;;20.75;7.13;;;5.20;99.90;;;3.78;100.00;100336.69;4896616;28;20173;-81
2023/12/31 10:17:46;;;;;;;23.58;9.57;;;5.20;99.90;;;3.76;100.00;100333.25;4909397;28;20038;-81
2023/12/31 10:20:25;;;;;;;19.77;6.63;;;5.20;99.90;;;3.77;100.00;100329.75;4922686;28;20030;-81
2023/12/31 10:23:00;;;;;;;19.25;7.85;;;5.30;99.90;;;3.80;100.00;100319.28;4890558;28;20104;-81
2023/12/31 10:25:38;;;;;;;15.85;7.10;;;5.20;99.90;;;3.82;100.00;100309.66;4875656;28;20061;-82
2023/12/31 10:28:13;;;;;;;21.20;7.75;;;5.30;99.90;;;3.80;100.00;100303.66;4907108;28;20048;-82
2023/12/31 10:30:42;;;;;;;20.80;8.18;;;5.20;99.90;;;3.79;100.00;100301.06;4897332;28;20045;-81
2023/12/31 10:33:13;;;;;;;20.58;8.25;;;5.20;99.90;;;3.82;100.00;100296.66;4931959;28;20091;-81
2023/12/31 10:35:50;;;;;;;22.77;6.55;;;5.30;99.90;;;3.83;100.00;100292.28;4898154;28;20101;-81
2023/12/31 10:38:16;;;;;;;21.13;7.22;;;5.30;99.90;;;3.81;100.00;100283.66;4914853;28;20510;-81
2023/12/31 10:40:43;;;;;;;19.98;8.38;;;5.30;99.90;;;3.88;100.00;100278.22;4893304;28;20094;-81
2023/12/31 10:43:16;;;;;;;21.55;7.40;;;5.30;99.90;;;3.95;100.00;100281.53;4892709;28;20041;-81
2023/12/31 10:45:42;;;;;;;16.63;7.38;;;5.40;99.90;;;3.97;100.00;100266.72;4873408;28;20143;-81
2023/12/31 10:48:10;;;;;;;16.55;7.68;;;5.40;99.90;;;4.02;100.00;100270.06;4912537;28;20053;-81
2023/12/31 10:50:47;;;;;;;26.58;8.07;;;5.50;99.90;;;4.10;100.00;100259.41;4885124;28;20140;-81
2023/12/31 10:53:24;;;;;;;25.75;8.73;;;5.50;99.90;;;4.13;100.00;100251.53;4844252;28;20075;-82
2023/12/31 10:55:49;;;;;;;;;;;5.50;99.90;;;4.11;100.00;100251.56;4858676;28;20051;-81
2023/12/31 10:58:16;;;;;;;14.75;5.55;;;5.50;99.90;;;4.10;100.00;100249.00;4821936;29;19974;-80
2023/12/31 11:00:54;;;;;;;14.90;5.72;;;5.50;99.90;;;4.12;100.00;100242.00;4838718;29;20059;-81
2023/12/31 11:03:23;;;;;;;18.50;7.13;;;5.60;99.90;;;4.16;100.00;100235.81;4858704;28;20551;-81
2023/12/31 11:05:56;;;;;;;18.80;6.40;;;5.60;99.90;;;4.18;100.00;100231.41;4846402;28;20160;-80
2023/12/31 11:08:24;;;;;;;16.83;6.07;;;5.60;99.90;;;4.22;100.00;100233.03;4872964;28;20165;-81
2023/12/31 11:10:50;;;;;;;16.77;6.55;;;5.60;99.90;;;4.23;100.00;100220.84;4901222;28;21218;-81
2023/12/31 11:13:25;;;;;;;28.55;11.75;;;5.70;99.90;;;4.32;100.00;100223.22;4905551;28;20137;-81
2023/12/31 11:15:53;;;;;;;19.65;6.30;;;;;;;4.35;100.00;100217.91;4887658;28;20122;-81
2023/12/31 11:19:16;;;;;;;29.88;10.05;;;5.80;99.90;;;4.37;100.00;100212.66;4895379;28;20038;-80
2023/12/31 11:22:33;;;;;;;16.52;7.22;;;5.80;99.90;;;4.45;100.00;100213.25;4898761;28;20048;-82
2023/12/31 11:25:08;;;;;;;20.40;5.53;;;5.80;99.90;;;4.44;100.00;100201.97;4903411;28;20476;-81
2023/12/31 11:27:35;;;;;;;19.30;6.63;;;5.80;99.90;;;4.45;100.00;100197.63;4906534;28;20667;-81
2023/12/31 11:30:12;;;;;;;;;;;;;;;;;;;;;
2023/12/31 11:32:38;;;;;;;24.42;9.82;;;5.90;99.90;;;4.57;100.00;100197.25;4901185;28;20056;-80
2023/12/31 11:35:06;;;;;;;18.58;7.50;;;6.00;99.90;;;4.61;100.00;100196.25;4867292;28;20117;-80
2023/12/31 11:37:41;;;;;;;27.50;10.27;;;6.00;99.90;;;4.64;100.00;100187.50;4944399;28;20446;-81
2023/12/31 11:40:09;;;;;;;23.23;10.55;;;6.00;99.90;;;4.68;100.00;100174.31;4947355;28;20042;-81
2023/12/31 11:42:44;;;;;;;14.82;7.75;;;6.10;99.90;;;4.72;100.00;100175.06;4881059;28;20031;-81
2023/12/31 11:46:09;;;;;;;22.63;8.32;;;6.30;99.90;;;4.73;100.00;100161.16;4867724;28;20039;-81
2023/12/31 11:48:37;;;;;;;19.10;6.82;;;;;;;4.77;100.00;100157.50;4822155;28;20109;-81
2023/12/31 11:51:15;;;;;;;15.23;5.85;;;6.10;99.90;;;4.81;100.00;100153.06;4831006;28;20050;-81
2023/12/31 11:53:56;;;;;;;22.27;6.80;;;6.20;99.90;;;4.87;100.00;100138.06;4866097;28;20467;-81
2023/12/31 11:56:27;;;;;;;15.10;5.97;;;6.20;99.90;;;4.88;100.00;100138.91;4862820;28;20055;-80
2023/12/31 11:58:58;;;;;;;13.77;5.75;;;6.30;99.90;;;4.86;100.00;100135.50;4919680;28;20049;-81
2023/12/31 12:01:25;;;;;;;15.63;5.47;;;6.30;99.90;;;4.91;100.00;100142.28;4926925;28;20446;-81
2023/12/31 12:04:04;;;;;;;22.40;6.28;;;6.30;99.90;;;4.93;100.00;100137.88;4883905;28;20042;-81
2023/12/31 12:06:30;;;;;;;28.90;11.00;;;6.30;99.90;;;4.99;100.00;100126.38;4917769;28;20081;-81
2023/12/31 12:08:56;;;;;;;15.02;6.93;;;6.40;99.90;;;5.05;100.00;100126.16;4945263;28;20047;-81
2023/12/31 12:11:29;;;;;;;22.27;8.68;;;6.40;99.90;;;5.05;100.00;100112.25;4917226;28;20076;-81
2023/12/31 12:13:55;;;;;;;21.95;6.75;;;6.50;99.90;;;5.09;100.00;100112.09;4899691;28;20113;-81
2023/12/31 12:16:21;;;;;;;21.92;12.82;;;6.50;99.90;;;5.11;100.00;100115.50;4893590;28;20546;-81
2023/12/31 12:19:00;;;;;;;14.93;6.07;;;6.50;99.90;;;5.12;100.00;100104.19;4881652;28;20108;-81
2023/12/31 12:21:26;;;;;;;16.85;5.72;;;6.50;99.90;;;5.16;100.00;100109.28;4894505;28;20050;-81
2023/12/31 12:23:53;;;;;;;13.23;5.13;;;6.50;99.90;;;5.17;100.00;100108.41;4899102;28;20580;-81
2023/12/31 12:26:28;;;;;;;13.82;4.95;;;6.50;99.90;;;5.17;100.00;100104.03;4854672;28;20047;-80
2023/12/31 12:28:55;;;;;;;12.25;4.85;;;6.60;99.90;;;5.13;100.00;100098.06;4891268;28;20031;-81
2023/12/31 12:31:22;;;;;;;15.63;4.70;;;6.50;99.90;;;5.13;100.00;100095.44;4923870;28;20121;-81
2023/12/31 12:33:54;;;;;;;10.48;5.13;;;6.50;99.90;;;5.19;100.00;100096.16;4961333;28;20113;-81
2023/12/31 12:36:21;;;;;;;12.25;5.53;;;6.60;99.90;;;5.20;100.00;100095.22;4907987;28;20061;-81
2023/12/31 12:38:48;;;;;;;10.65;4.22;;;6.60;99.90;;;5.20;100.00;100103.06;4913106;28;20039;-82
2023/12/31 12:41:23;;;;;;;14.88;5.82;;;6.60;99.90;;;5.20;100.00;100093.47;4904121;28;20043;-80
2023/12/31 12:44:20;;;;;;;11.00;4.57;;;6.60;99.90;;;5.17;100.00;100101.41;4901615;28;20042;-81
2023/12/31 12:46:48;;;;;;;;;;;6.60;99.90;;;5.18;100.00;100090.06;4875102;28;20090;-81
2023/12/31 12:49:14;;;;;;;9.63;4.57;;;6.60;99.90;;;5.18;100.00;100095.28;4898739;28;19922;-82
2023/12/31 12:51:46;;;;;;;11.38;5.75;;;6.60;99.90;;;5.22;100.00;100083.81;4859925;29;20098;-81
2023/12/31 12:54:12;;;;;;;17.17;5.18;;;;;;;5.23;100.00;100087.31;4890618;28;20053;-81
2023/12/31 12:56:38;;;;;;;16.23;5.35;;;6.70;99.90;;;5.28;100.00;100094.06;4887219;28;20852;-81
2023/12/31 12:59:04;;;;;;;23.98;7.32;;;6.70;99.90;;;5.26;100.00;100082.81;4878105;28;20099;-81
2023/12/31 13:01:31;;;;;;;10.55;4.65;;;6.70;99.90;;;5.25;100.00;100082.91;4876418;28;20082;-81
2023/12/31 13:04:10;;;;;;;14.93;5.85;;;6.60;99.90;;;5.23;100.00;100082.94;4918602;29;20461;-80
2023/12/31 13:06:44;;;;;;;17.88;5.63;;;6.60;99.90;;;5.24;100.00;100083.78;4853672;28;20246;-81
2023/12/31 13:09:11;;;;;;;11.85;4.88;;;6.60;99.90;;;5.24;100.00;100078.56;4831346;29;20037;-81
2023/12/31 13:11:37;;;;;;;14.80;4.80;;;6.60;99.90;;;5.20;100.00;100074.34;4831351;29;20592;-81
2023/12/31 13:14:03;;;;;;;11.32;4.63;;;6.60;99.90;;;5.19;100.00;100075.28;4813448;29;20053;-81
2023/12/31 13:16:36;;;;;;;14.02;5.07;;;6.60;99.90;;;5.21;100.00;100073.47;4865639;28;20047;-81
2023/12/31 13:19:03;;;;;;;15.73;4.90;;;6.60;99.90;;;5.17;100.00;100066.66;4927563;28;20044;-82
2023/12/31 13:21:29;;;;;;;12.48;5.20;;;6.60;99.90;;;5.17;100.00;100046.59;4877639;28;20070;-80
2023/12/31 13:23:54;;;;;;;12.10;4.45;;;6.60;99.90;;;5.18;100.00;100042.22;4909252;28;20049;-81
2023/12/31 13:26:25;;;;;;;13.27;5.32;;;6.60;99.90;;;5.16;100.00;100039.66;4916378;28;20049;-80
2023/12/31 13:28:51;;;;;;;12.77;5.20;;;6.50;99.90;;;5.12;100.00;100044.16;4907892;28;20036;-81
2023/12/31 13:31:22;;;;;;;13.20;4.35;;;6.50;99.90;;;5.05;100.00;100047.88;4929577;28;20043;-80
2023/12/31 13:33:57;;;;;;;16.15;5.20;;;6.50;99.90;;;5.14;100.00;100046.72;4918299;28;20228;-81
2023/12/31 13:36:23;;;;;;;14.27;5.45;;;6.50;99.90;;;5.11;100.00;100052.03;4900824;28;20031;-81
2023/12/31 13:38:49;;;;;;;13.05;4.53;;;6.50;99.90;;;5.01;100.00;100042.81;4938354;28;20066;-82
2023/12/31 13:41:15;;;;;;;12.23;5.35;;;6.50;99.90;;;5.05;100.00;100042.66;4906040;28;20058;-81
2023/12/31 13:43:48;;;;;;;9.77;3.83;;;6.50;99.90;;;5.04;100.00;100040.97;4912346;28;20038;-81
2023/12/31 13:46:14;;;;;;;21.42;5.35;;;6.50;99.90;;;5.06;100.00;100033.09;4901702;28;20047;-81
2023/12/31 13:48:40;;;;;;;12.45;5.28;;;6.50;99.90;;;5.08;100.00;100032.13;4904025;28;20395;-80
2023/12/31 13:51:08;;;;;;;14.32;4.53;;;6.50;99.90;;;5.05;100.00;100037.44;4896788;28;20046;-79
2023/12/31 13:53:39;;;;;;;16.48;5.07;;;6.50;99.90;;;5.01;100.00;100025.44;4927446;28;20097;-80
2023/12/31 13:56:06;;;;;;;18.50;5.60;;;;;;;5.08;100.00;100032.13;4941867;28;20051;-81
2023/12/31 13:58:32;;;;;;;22.50;5.40;;;6.50;99.90;;;5.01;100.00;100028.03;4938097;28;20042;-81
2023/12/31 14:00:58;;;;;;;13.07;5.30;;;6.40;99.90;;;5.02;100.00;100014.06;4914255;28;20065;-81
2023/12/31 14:03:47;;;;;;;22.65;6.13;;;6.40;99.90;;;5.02;100.00;100005.41;4931433;28;20038;-82
2023/12/31 14:06:16;;;;;;;16.73;6.18;;;6.40;99.90;;;5.02;100.00;99997.56;4890982;28;20039;-80
2023/12/31 14:08:43;;;;;;;14.48;6.07;;;6.40;99.90;;;5.03;100.00;99996.66;4914871;28;20038;-82
2023/12/31 14:11:17;;;;;;;23.63;6.88;;;6.40;99.90;;;5.02;100.00;100006.25;4912635;28;20038;-81
2023/12/31 14:13:45;;;;;;;19.20;5.88;;;6.40;99.90;;;5.01;100.00;99994.13;4912643;28;20137;-81
2023/12/31 14:16:11;;;;;;;13.77;4.95;;;6.40;99.90;;;5.00;100.00;99984.56;4920915;28;20038;-81
2023/12/31 14:18:44;;;;;;;20.23;6.15;;;6.40;99.90;;;4.96;100.00;99974.31;4883494;28;20043;-81
2023/12/31 14:21:10;;;;;;;12.82;5.78;;;6.40;99.90;;;5.00;100.00;99968.91;4911325;28;20410;-80
2023/12/31 14:23:36;;;;;;;19.30;7.32;;;6.40;99.90;;;4.98;100.00;99962.06;4925531;28;20034;-81
2023/12/31 14:26:13;;;;;;;23.55;7.43;;;6.40;99.90;;;5.02;100.00;99937.56;4907960;28;20121;-83
2023/12/31 14:28:38;;;;;;;16.13;6.25;;;6.40;99.90;;;4.98;100.00;99949.00;4876599;28;20057;-81
2023/12/31 14:31:04;;;;;;;13.68;5.88;;;6.40;99.90;;;5.01;100.00;99938.44;4911220;28;20120;-82
2023/12/31 14:33:30;;;;;;;14.98;6.13;;;6.40;99.90;;;4.97;100.00;99935.13;4897425;28;20089;-82
2023/12/31 14:36:06;;;;;;;15.82;6.57;;;6.40;99.90;;;4.93;100.00;99951.78;4895266;28;20047;-81
2023/12/31 14:38:32;;;;;;;13.43;5.60;;;;;;;4.92;100.00;99942.25;4903601;28;20121;-82
2023/12/31 14:41:06;;;;;;;15.93;6.03;;;6.40;99.90;;;4.91;100.00;99924.91;4908529;28;20039;-81
2023/12/31 14:43:32;;;;;;;19.95;6.43;;;6.40;99.90;;;4.94;100.00;99920.41;4973966;28;20038;-81
2023/12/31 14:45:58;;;;;;;22.08;6.88;;;6.30;99.90;;;4.90;100.00;99928.41;4955580;28;20044;-81
2023/12/31 14:48:26;;;;;;;17.00;6.50;;;6.30;99.90;;;4.90;100.00;99917.97;4904777;28;20499;-81
2023/12/31 14:51:03;;;;;;;16.67;6.53;;;6.30;99.90;;;4.89;100.00;99924.09;4912125;28;20042;-82
2023/12/31 14:53:37;;;;;;;19.52;5.95;;;6.30;99.90;;;4.85;100.00;99919.91;4905519;28;20096;-80
2023/12/31 14:56:06;;;;;;;15.93;5.38;;;6.30;99.90;;;4.84;100.00;99926.03;4892556;28;20125;-81
2023/12/31 14:58:32;;;;;;;15.63;6.15;;;6.30;99.90;;;4.86;100.00;99932.91;4914186;28;20081;-82
2023/12/31 15:00:57;;;;;;;41.70;5.85;;;6.20;99.90;;;4.82;100.00;99940.88;4873396;28;20039;-81
2023/12/31 15:03:23;;;;;;;19.00;5.93;;;6.30;99.90;;;4.77;100.00;99948.84;4917906;28;20092;-82
2023/12/31 15:05:54;;;;;;;11.45;5.53;;;6.20;99.90;;;4.77;100.00;99938.41;4922504;28;20036;-81
2023/12/31 15:08:20;;;;;;;15.77;5.82;;;;;;;4.80;100.00;99945.31;4943386;28;20053;-83
2023/12/31 15:10:46;;;;;;;12.05;4.72;;;6.20;99.90;;;4.78;100.00;99944.50;4880758;28;20144;-80
2023/12/31 15:13:14;;;;;;;15.70;5.75;;;6.20;99.90;;;4.80;100.00;99933.13;4881871;28;20063;-81
2023/12/31 15:15:49;;;;;;;31.42;11.23;;;6.20;99.90;;;4.79;100.00;99934.00;4904294;28;20046;-81
2023/12/31 15:18:16;;;;;;;16.00;6.60;;;6.30;99.90;;;4.81;100.00;99933.94;4887598;28;20041;-81
2023/12/31 15:20:45;;;;;;;21.15;9.82;;;6.30;99.90;;;4.85;100.00;99930.34;4915839;28;20034;-82
2023/12/31 15:23:14;;;;;;;19.85;7.15;;;6.20;99.90;;;4.84;100.00;99923.44;4925928;28;20069;-81
2023/12/31 15:25:40;;;;;;;24.92;10.32;;;;;;;4.83;100.00;99926.94;4891129;28;20138;-81
2023/12/31 15:28:07;;;;;;;17.50;7.47;;;6.20;99.90;;;4.83;100.00;99913.88;4881539;28;20055;-82
2023/12/31 15:30:33;;;;;;;15.95;6.28;;;6.20;99.90;;;4.84;100.00;99910.38;4892647;28;20048;-81
2023/12/31 15:32:59;;;;;;;16.75;6.57;;;6.30;99.90;;;4.86;100.00;99913.75;4917645;28;20038;-81
2023/12/31 15:35:35;;;;;;;18.38;6.57;;;6.30;99.90;;;4.88;100.00;99909.34;4931713;28;20046;-81
2023/12/31 15:38:17;;;;;;;27.00;10.85;;;6.30;99.90;;;4.87;100.00;99907.66;4906909;28;20038;-81
2023/12/31 15:40:51;;;;;;;16.63;8.40;;;6.30;99.90;;;4.90;100.00;99897.09;4890660;28;20078;-82
2023/12/31 15:43:17;;;;;;;20.52;6.90;;;6.30;99.90;;;4.88;100.00;99891.97;4886782;28;20035;-81
2023/12/31 15:45:46;;;;;;;17.33;7.63;;;6.30;99.90;;;4.89;100.00;99891.03;4880472;28;20038;-81
2023/12/31 15:48:20;;;;;;;14.85;6.43;;;6.30;99.90;;;4.90;100.00;99900.59;4902183;28;20102;-81
2023/12/31 15:50:46;;;;;;;16.75;6.65;;;6.30;99.90;;;4.88;100.00;99898.91;4897130;28;20043;-81
2023/12/31 15:53:38;;;;;;;14.15;5.65;;;6.30;99.90;;;4.86;100.00;99895.50;4901034;28;20050;-82
2023/12/31 15:56:06;;;;;;;19.02;6.88;;;6.30;99.90;;;4.88;100.00;99886.75;4864028;28;20035;-81
2023/12/31 15:58:32;;;;;;;17.17;6.85;;;6.30;99.90;;;4.88;100.00;99888.47;4886436;28;20101;-82
2023/12/31 16:00:58;;;;;;;19.83;5.25;;;6.30;99.90;;;4.91;100.00;99884.00;4892379;28;20043;-81
2023/12/31 16:03:48;;;;;;;13.00;6.55;;;6.30;99.90;;;4.91;100.00;99889.22;4901888;28;20051;-81
2023/12/31 16:06:16;;;;;;;14.48;6.13;;;6.40;99.90;;;4.96;100.00;99883.84;4882065;28;20047;-81
2023/12/31 16:08:42;;;;;;;15.75;6.97;;;6.40;99.90;;;4.98;100.00;99892.44;4898579;28;20054;-82
2023/12/31 16:11:19;;;;;;;17.02;6.53;;;6.40;99.90;;;5.02;100.00;99880.16;4879021;28;20404;-82
2023/12/31 16:13:45;;;;;;;16.83;6.68;;;6.40;99.90;;;4.98;100.00;99874.19;4863652;28;20059;-81
2023/12/31 16:16:27;;;;;;;15.73;5.63;;;6.40;99.90;;;5.02;100.00;99875.78;4909800;28;20286;-82
2023/12/31 16:19:03;;;;;;;15.43;6.45;;;6.40;99.90;;;4.97;100.00;99889.91;4891246;28;20039;-82
2023/12/31 16:21:29;;;;;;;13.40;5.68;;;6.40;99.90;;;4.97;100.00;99898.59;4927130;28;20058;-81